Time;durP1;ratioP1;P1;durP2;ratioP2;P2;SDS_P1;SDS_P2;PMS_P1;PMS_P2;Temp;Humidity;BMP_temperature;BMP_pressure;BME280_temperature;BME280_humidity;BME280_pressure;Samples;Min_cycle;Max_cycle;Signal;HPM_P1;HPM_P2
2023/05/12 00:00:36;;;;;;;3.25;1.83;;;;;;;13.47;93.10;101857.44;5099020;27;96670;-29
2023/05/12 00:03:03;;;;;;;4.15;2.10;;;;;;;13.46;93.97;101852.94;5099296;27;96875;-28
2023/05/12 00:05:28;;;;;;;4.70;2.22;;;;;;;13.50;93.76;101856.38;5098676;27;99258;-29
2023/05/12 00:07:54;;;;;;;2.85;1.67;;;;;;;13.47;93.86;101853.84;5098672;27;99700;-30
2023/05/12 00:10:19;;;;;;;4.15;2.00;;;;;;;13.48;94.61;101861.03;5099592;27;96758;-29
2023/05/12 00:12:46;;;;;;;3.50;1.85;;;;;;;13.45;94.23;101864.78;5098893;27;96858;-29
2023/05/12 00:15:11;;;;;;;3.40;1.70;;;;;;;13.44;94.21;101863.03;5079958;27;100928;-29
2023/05/12 00:17:37;;;;;;;3.25;1.85;;;;;;;13.45;94.06;101855.75;5098826;27;99745;-29
2023/05/12 00:20:03;;;;;;;3.35;1.65;;;;;;;13.44;94.29;101856.72;5099252;27;96643;-30
2023/05/12 00:22:28;;;;;;;3.00;1.70;;;;;;;13.42;93.45;101854.09;5080448;27;96803;-29
2023/05/12 00:24:54;;;;;;;3.55;1.60;;;;;;;13.44;94.10;101857.59;5097492;27;99765;-29
2023/05/12 00:27:19;;;;;;;3.50;1.67;;;;;;;13.44;94.02;101859.44;5098274;27;99233;-29
2023/05/12 00:29:44;;;;;;;2.33;1.17;;;;;;;13.43;93.48;101853.13;5098685;27;96527;-28
2023/05/12 00:32:10;;;;;;;4.20;1.67;;;;;;;13.38;93.25;101852.50;5098564;27;96928;-29
2023/05/12 00:34:35;;;;;;;2.42;1.27;;;;;;;13.34;93.46;101843.63;5098495;27;97513;-29
2023/05/12 00:37:00;;;;;;;1.90;1.10;;;;;;;13.41;93.75;101851.44;5098476;27;103134;-29
2023/05/12 00:39:25;;;;;;;2.55;1.42;;;;;;;13.31;93.35;101846.53;5098680;27;96818;-29
2023/05/12 00:41:56;;;;;;;2.45;1.40;;;;;;;13.35;93.08;101849.97;5099196;27;96825;-29
2023/05/12 00:44:21;;;;;;;1.88;1.10;;;;;;;13.29;93.06;101847.59;5079414;27;101327;-28
2023/05/12 00:46:47;;;;;;;1.05;0.80;;;;;;;13.25;92.96;101846.88;5098270;27;97751;-29
2023/05/12 00:49:12;;;;;;;2.05;1.00;;;;;;;13.22;92.46;101847.03;5098335;27;96488;-28
2023/05/12 00:51:38;;;;;;;1.55;0.88;;;;;;;13.19;92.63;101847.19;5098496;27;96787;-30
2023/05/12 00:54:04;;;;;;;2.75;1.48;;;;;;;13.20;92.70;101846.22;5081355;27;101264;-29
2023/05/12 00:56:34;;;;;;;2.15;1.05;;;;;;;13.16;92.81;101842.81;5102016;27;97764;-30
2023/05/12 00:58:59;;;;;;;1.35;0.98;;;;;;;13.12;93.21;101845.78;5101962;27;96639;-29
2023/05/12 01:01:25;;;;;;;2.53;1.38;;;;;;;13.11;93.15;101847.63;5102315;27;96871;-28
2023/05/12 01:03:50;;;;;;;2.17;1.25;;;;;;;13.09;93.25;101837.81;5101125;27;99212;-28
2023/05/12 01:06:53;;;;;;;2.70;1.23;;;;;;;13.08;93.27;101842.34;5102142;27;98297;-29
2023/05/12 01:09:18;;;;;;;;;;;;;;;13.07;93.45;101839.72;5083931;27;96546;-30
2023/05/12 01:11:43;;;;;;;1.63;0.75;;;;;;;13.04;93.14;101835.34;5102334;27;96793;-31
2023/05/12 01:14:09;;;;;;;5.80;1.75;;;;;;;13.03;93.47;101839.00;5101158;27;98757;-30
2023/05/12 01:16:40;;;;;;;2.15;1.25;;;;;;;13.01;93.01;101832.78;5101241;27;99513;-28
2023/05/12 01:19:09;;;;;;;3.50;1.52;;;;;;;12.95;93.33;101833.13;5083273;27;96860;-30
2023/05/12 01:21:34;;;;;;;3.38;1.73;;;;;;;12.96;93.30;101835.75;5083324;27;96913;-30
2023/05/12 01:24:05;;;;;;;4.15;1.83;;;;;;;12.90;93.19;101824.38;5101453;27;98353;-29
2023/05/12 01:26:32;;;;;;;2.67;1.40;;;;;;;12.90;93.10;101827.09;5101120;27;99053;-29
2023/05/12 01:29:00;;;;;;;2.55;1.52;;;;;;;12.89;93.21;101831.63;5083217;27;96732;-28
2023/05/12 01:31:26;;;;;;;2.58;1.38;;;;;;;12.83;93.46;101828.38;5082769;27;96965;-28
2023/05/12 01:33:51;;;;;;;2.97;1.90;;;;;;;12.80;93.56;101833.97;5101171;27;97347;-29
2023/05/12 01:36:16;;;;;;;2.15;1.30;;;;;;;12.71;93.43;101830.81;5101110;27;97281;-29
2023/05/12 01:38:41;;;;;;;2.15;1.42;;;;;;;12.70;93.65;101829.06;5101285;27;96412;-30
2023/05/12 01:41:07;;;;;;;3.58;1.45;;;;;;;12.70;93.56;101833.59;5101759;27;96765;-30
2023/05/12 01:43:32;;;;;;;3.00;1.58;;;;;;;12.67;93.75;101829.22;5100994;27;99797;-29
2023/05/12 01:45:57;;;;;;;2.42;1.30;;;;;;;12.63;94.06;101841.25;5101451;27;97273;-30
2023/05/12 01:48:23;;;;;;;2.38;1.45;;;;;;;12.59;93.66;101827.88;5101437;27;96517;-29
2023/05/12 01:50:48;;;;;;;2.33;1.17;;;;;;;12.59;94.02;101830.59;5101462;27;96773;-29
2023/05/12 01:53:13;;;;;;;2.75;1.65;;;;;;;12.56;94.00;101834.38;5100811;27;97939;-28
2023/05/12 01:55:39;;;;;;;3.80;1.73;;;;;;;12.51;94.00;101839.16;5101188;27;97363;-29
2023/05/12 01:58:04;;;;;;;2.42;1.15;;;;;;;12.48;94.13;101836.59;5101427;27;96483;-29
2023/05/12 02:00:30;;;;;;;3.17;1.50;;;;;;;12.47;93.90;101835.75;5101308;27;96785;-29
2023/05/12 02:02:55;;;;;;;2.67;1.15;;;;;;;12.45;94.29;101840.38;5099868;27;97929;-29
2023/05/12 02:05:21;;;;;;;3.13;1.45;;;;;;;12.41;94.46;101835.19;5100417;27;97784;-29
2023/05/12 02:07:46;;;;;;;2.83;1.33;;;;;;;12.42;94.34;101836.91;5101021;27;96775;-29
2023/05/12 02:10:11;;;;;;;2.75;1.45;;;;;;;12.43;94.87;101841.41;5101179;27;96802;-28
2023/05/12 02:12:37;;;;;;;1.23;0.88;;;;;;;12.40;94.49;101845.19;5100663;27;98056;-29
2023/05/12 02:15:03;;;;;;;2.13;1.00;;;;;;;12.38;94.52;101832.63;5081904;27;101527;-29
2023/05/12 02:17:29;;;;;;;3.25;1.58;;;;;;;12.33;94.26;101835.59;5082277;27;96684;-30
2023/05/12 02:19:54;;;;;;;2.88;1.55;;;;;;;12.29;95.22;101829.44;5101466;27;96796;-29
2023/05/12 02:22:19;;;;;;;1.20;0.90;;;;;;;12.28;94.96;101830.41;5100463;27;98549;-29
2023/05/12 02:24:45;;;;;;;3.00;1.55;;;;;;;12.30;94.56;101830.34;5100252;27;100092;-28
2023/05/12 02:27:10;;;;;;;2.15;1.20;;;;;;;12.27;95.09;101831.34;5100477;27;96593;-29
2023/05/12 02:29:36;;;;;;;1.92;0.98;;;;;;;12.24;95.23;101830.66;5100857;27;96708;-29
2023/05/12 02:32:02;;;;;;;2.35;1.35;;;;;;;12.27;95.23;101820.47;5099424;27;98167;-29
2023/05/12 02:34:27;;;;;;;1.85;1.15;;;;;;;12.24;95.09;101815.22;5100120;27;99209;-29
2023/05/12 02:36:53;;;;;;;2.47;1.35;;;;;;;12.20;95.50;101816.34;5100614;27;97125;-29
2023/05/12 02:39:18;;;;;;;3.13;1.60;;;;;;;12.21;95.47;101815.38;5100402;27;96518;-29
2023/05/12 02:41:43;;;;;;;3.63;1.40;;;;;;;12.21;95.91;101815.38;5100136;27;97906;-29
2023/05/12 02:44:09;;;;;;;2.25;1.33;;;;;;;12.14;96.11;101811.25;5100480;27;97334;-29
2023/05/12 02:46:34;;;;;;;3.40;1.40;;;;;;;12.13;96.39;101812.19;5100223;27;96662;-30
2023/05/12 02:48:59;;;;;;;2.63;1.25;;;;;;;12.10;96.27;101815.06;5100235;27;96853;-29
2023/05/12 02:51:25;;;;;;;2.90;1.15;;;;;;;12.11;96.45;101806.84;5080885;27;99546;-28
2023/05/12 02:53:51;;;;;;;1.60;1.15;;;;;;;12.11;96.45;101806.84;5099932;27;97396;-29
2023/05/12 02:56:16;;;;;;;1.95;1.02;;;;;;;12.10;96.89;101802.34;5100528;27;96479;-29
2023/05/12 02:58:42;;;;;;;2.30;1.27;;;;;;;12.13;96.63;101803.16;5100446;27;96826;-28
2023/05/12 03:01:07;;;;;;;3.15;1.35;;;;;;;12.14;96.99;101799.50;5099380;27;99264;-29
2023/05/12 03:03:33;;;;;;;3.05;1.25;;;;;;;12.09;96.77;101792.47;5099732;27;97844;-29
2023/05/12 03:05:58;;;;;;;2.30;1.17;;;;;;;12.10;96.78;101798.78;5100355;27;96600;-28
2023/05/12 03:08:24;;;;;;;1.83;1.25;;;;;;;12.08;96.79;101798.88;5100406;27;96659;-29
2023/05/12 03:10:49;;;;;;;3.10;1.38;;;;;;;12.09;96.76;101791.59;5099416;27;99248;-29
2023/05/12 03:13:14;;;;;;;1.48;0.98;;;;;;;12.08;96.57;101795.25;5099609;27;97795;-29
2023/05/12 03:15:40;;;;;;;2.92;1.23;;;;;;;12.06;97.20;101789.03;5080257;27;96474;-28
2023/05/12 03:18:05;;;;;;;3.35;1.45;;;;;;;12.03;97.26;101791.91;5099951;27;96929;-30
2023/05/12 03:20:30;;;;;;;3.60;1.05;;;;;;;12.00;97.55;101784.81;5099292;27;99204;-28
2023/05/12 03:22:56;;;;;;;1.98;1.13;;;;;;;11.96;97.00;101779.63;5099655;27;97841;-28
2023/05/12 03:25:21;;;;;;;1.40;0.90;;;;;;;11.95;96.88;101776.03;5099820;27;96487;-28
2023/05/12 03:27:47;;;;;;;1.83;0.95;;;;;;;11.95;97.38;101769.72;5099729;27;96937;-29
2023/05/12 03:30:12;;;;;;;2.08;1.30;;;;;;;11.92;97.54;101773.47;5099128;27;98029;-30
2023/05/12 03:32:38;;;;;;;2.85;1.10;;;;;;;11.93;97.68;101768.91;5098698;27;97914;-29
2023/05/12 03:35:04;;;;;;;1.48;1.02;;;;;;;11.91;97.51;101760.84;5099595;27;96558;-29
2023/05/12 03:37:30;;;;;;;2.05;1.30;;;;;;;11.87;97.84;101762.88;5081065;27;96949;-29
2023/05/12 03:39:55;;;;;;;3.45;1.30;;;;;;;11.90;97.60;101773.56;5098855;27;97946;-29
2023/05/12 03:42:22;;;;;;;4.55;1.25;;;;;;;11.92;98.09;101772.59;5099342;27;97798;-29
2023/05/12 03:44:51;;;;;;;1.63;1.15;;;;;;;11.88;97.65;101761.88;5099290;27;96631;-30
2023/05/12 03:47:17;;;;;;;1.42;0.80;;;;;;;11.83;98.08;101754.91;5080869;27;96903;-29
2023/05/12 03:49:42;;;;;;;2.05;1.35;;;;;;;11.82;97.87;101759.47;5099016;27;97347;-28
2023/05/12 03:52:08;;;;;;;2.92;1.25;;;;;;;11.86;98.52;101760.19;5098800;27;99126;-29
2023/05/12 03:54:33;;;;;;;2.70;1.60;;;;;;;11.88;98.53;101764.59;5099576;27;96811;-29
2023/05/12 03:56:58;;;;;;;2.35;1.63;;;;;;;11.86;98.11;101760.19;5099916;27;96861;-28
2023/05/12 03:59:24;;;;;;;3.10;1.77;;;;;;;11.86;98.36;101761.06;5098848;27;98100;-29
2023/05/12 04:01:51;;;;;;;4.43;2.10;;;;;;;11.83;98.71;101761.22;5098762;27;99201;-29
2023/05/12 04:04:17;;;;;;;4.53;2.60;;;;;;;11.82;99.17;101753.16;5098856;27;96490;-29
2023/05/12 04:06:43;;;;;;;3.55;2.28;;;;;;;11.83;98.41;101760.34;5099100;27;96870;-30
2023/05/12 04:09:09;;;;;;;3.45;1.92;;;;;;;11.83;98.31;101763.06;5098836;27;98029;-28
2023/05/12 04:11:34;;;;;;;3.35;2.05;;;;;;;11.77;99.35;101764.25;5098466;27;99381;-29
2023/05/12 04:13:59;;;;;;;4.30;2.08;;;;;;;11.74;99.36;101750.84;5099035;27;96599;-28
2023/05/12 04:16:25;;;;;;;4.03;2.22;;;;;;;11.77;99.78;101750.66;5099471;27;96807;-29
2023/05/12 04:18:50;;;;;;;3.67;2.17;;;;;;;11.77;99.21;101758.81;5098657;27;98033;-29
2023/05/12 04:21:16;;;;;;;3.78;2.05;;;;;;;11.78;99.83;101760.59;5099086;27;97769;-29
2023/05/12 04:23:41;;;;;;;3.35;2.15;;;;;;;11.81;99.32;101767.69;5099018;27;96646;-29
2023/05/12 04:26:06;;;;;;;3.78;2.30;;;;;;;11.79;99.32;101764.19;5099131;27;96788;-29
2023/05/12 04:28:32;;;;;;;2.78;1.88;;;;;;;11.80;100.00;101760.53;5097919;27;97266;-28
2023/05/12 04:31:02;;;;;;;3.55;2.40;;;;;;;11.78;99.35;101757.88;5097982;27;98842;-29
2023/05/12 04:33:28;;;;;;;2.17;1.60;;;;;;;11.76;99.79;101754.34;5079959;27;96617;-28
2023/05/12 04:35:57;;;;;;;2.55;1.60;;;;;;;11.75;100.00;101757.13;5098974;27;96830;-28
2023/05/12 04:38:22;;;;;;;2.45;1.70;;;;;;;11.76;100.00;101764.34;5079629;27;100728;-29
2023/05/12 04:40:47;;;;;;;2.60;1.85;;;;;;;11.75;100.00;101766.19;5098358;27;97817;-29
2023/05/12 04:43:13;;;;;;;2.95;2.05;;;;;;;11.74;100.00;101756.28;5098796;27;96662;-30
2023/05/12 04:45:38;;;;;;;4.00;2.00;;;;;;;11.73;100.00;101759.06;5098990;27;97028;-29
2023/05/12 04:48:04;;;;;;;2.85;1.83;;;;;;;11.74;100.00;101760.81;5098086;27;99076;-29
2023/05/12 04:50:30;;;;;;;3.47;1.70;;;;;;;11.71;100.00;101756.44;5098045;27;98532;-29
2023/05/12 04:52:55;;;;;;;2.88;2.22;;;;;;;11.75;100.00;101765.28;5098510;27;96550;-29
2023/05/12 04:55:20;;;;;;;2.22;1.55;;;;;;;11.70;100.00;101762.81;5098482;27;96876;-29
2023/05/12 04:57:46;;;;;;;1.98;1.58;;;;;;;11.74;100.00;101772.56;5097633;27;99215;-30
2023/05/12 05:00:11;;;;;;;2.70;1.58;;;;;;;11.71;100.00;101772.72;5079386;27;101262;-28
2023/05/12 05:02:37;;;;;;;3.05;1.85;;;;;;;11.71;100.00;101774.56;5098461;27;96492;-28
2023/05/12 05:05:03;;;;;;;2.75;1.95;;;;;;;11.72;100.00;101768.16;5079605;27;96845;-28
2023/05/12 05:07:29;;;;;;;2.08;1.38;;;;;;;11.71;100.00;101771.84;5079196;27;100406;-28
2023/05/12 05:09:54;;;;;;;2.05;1.52;;;;;;;11.76;100.00;101776.06;5098310;27;97851;-29
2023/05/12 05:12:20;;;;;;;3.80;1.88;;;;;;;11.77;100.00;101771.50;5097840;27;96619;-28
2023/05/12 05:14:45;;;;;;;3.58;1.75;;;;;;;11.80;100.00;101788.53;5098538;27;96818;-29
2023/05/12 05:17:11;;;;;;;3.47;1.73;;;;;;;11.76;100.00;101778.78;5097136;27;99381;-29
2023/05/12 05:19:37;;;;;;;2.70;1.55;;;;;;;11.80;100.00;101785.81;5097776;27;99104;-29
2023/05/12 05:22:03;;;;;;;3.08;1.63;;;;;;;11.81;100.00;101787.56;5098173;27;96603;-30
2023/05/12 05:24:29;;;;;;;2.47;1.55;;;;;;;11.82;100.00;101781.19;5098380;27;96814;-28
2023/05/12 05:26:54;;;;;;;4.35;1.42;;;;;;;11.84;100.00;101789.25;5097656;27;97936;-28
2023/05/12 05:29:20;;;;;;;3.38;1.85;;;;;;;11.83;100.00;101792.94;5097499;27;99314;-29
2023/05/12 05:31:45;;;;;;;2.67;1.60;;;;;;;11.84;100.00;101787.41;5097960;27;96778;-28
2023/05/12 05:34:11;;;;;;;2.17;1.58;;;;;;;11.87;100.00;101792.72;5098245;27;96837;-29
2023/05/12 05:36:36;;;;;;;4.57;2.33;;;;;;;11.83;100.00;101792.94;5097460;27;99401;-28
2023/05/12 05:39:01;;;;;;;3.40;2.35;;;;;;;11.89;100.00;101793.53;5098159;27;97815;-31
2023/05/12 05:41:27;;;;;;;3.03;1.73;;;;;;;11.92;100.00;101797.00;5100921;27;96489;-29
2023/05/12 05:43:52;;;;;;;3.53;2.13;;;;;;;11.95;100.00;101799.59;5101868;27;96913;-28
2023/05/12 05:46:17;;;;;;;3.92;2.72;;;;;;;11.94;100.00;101786.97;5101185;27;97419;-28
2023/05/12 05:48:43;;;;;;;4.45;2.45;;;;;;;11.97;100.00;101801.28;5100832;27;98236;-29
2023/05/12 05:51:10;;;;;;;4.65;2.67;;;;;;;12.00;100.00;101803.81;5101429;27;96599;-29
2023/05/12 05:53:35;;;;;;;8.15;3.67;;;;;;;12.02;100.00;101812.75;5101088;27;96874;-29
2023/05/12 05:56:01;;;;;;;5.93;3.10;;;;;;;12.01;100.00;101808.31;5100822;27;97993;-29
2023/05/12 05:58:26;;;;;;;5.80;3.47;;;;;;;12.05;100.00;101817.16;5101114;27;97863;-31
2023/05/12 06:00:51;;;;;;;8.05;3.50;;;;;;;12.07;100.00;101807.97;5101047;27;96627;-29
2023/05/12 06:03:17;;;;;;;7.75;3.97;;;;;;;12.12;100.00;101813.16;5101228;27;96790;-28
2023/05/12 06:05:42;;;;;;;7.88;3.55;;;;;;;12.14;100.00;101819.38;5100046;27;99417;-29
2023/05/12 06:08:09;;;;;;;9.05;4.05;;;;;;;12.18;100.00;101812.84;5100701;27;97843;-28
2023/05/12 06:10:35;;;;;;;8.90;4.25;;;;;;;12.20;100.00;101813.63;5082442;27;96607;-29
2023/05/12 06:13:00;;;;;;;10.27;4.50;;;;;;;12.23;100.00;101818.03;5082275;27;96760;-29
2023/05/12 06:15:26;;;;;;;8.25;4.82;;;;;;;12.25;100.00;101814.28;5100837;27;97368;-28
2023/05/12 06:17:51;;;;;;;8.75;4.30;;;;;;;12.28;100.00;101824.97;5100581;27;97918;-28
2023/05/12 06:20:17;;;;;;;9.88;4.43;;;;;;;12.29;100.00;101818.56;5100941;27;96648;-28
2023/05/12 06:22:43;;;;;;;6.45;3.67;;;;;;;12.32;100.00;101828.38;5101461;27;96793;-29
2023/05/12 06:25:09;;;;;;;5.60;3.35;;;;;;;12.35;100.00;101830.97;5100420;27;97969;-30
2023/05/12 06:27:34;;;;;;;7.35;4.00;;;;;;;12.37;100.00;101828.16;5081326;27;101182;-29
2023/05/12 06:29:59;;;;;;;7.55;3.70;;;;;;;12.41;100.00;101835.19;5100391;27;96619;-30
2023/05/12 06:32:25;;;;;;;8.05;4.20;;;;;;;12.40;100.00;101834.31;5099916;27;96966;-29
2023/05/12 06:34:50;;;;;;;8.10;4.18;;;;;;;12.44;100.00;101840.44;5099899;27;100038;-29
2023/05/12 06:37:16;;;;;;;9.93;4.82;;;;;;;12.46;100.00;101839.41;5100382;27;97989;-29
2023/05/12 06:39:41;;;;;;;8.57;4.45;;;;;;;12.48;100.00;101833.88;5100606;27;96468;-28
2023/05/12 06:42:06;;;;;;;7.53;3.90;;;;;;;12.55;100.00;101838.03;5100391;27;96468;-29
2023/05/12 06:44:32;;;;;;;7.38;4.05;;;;;;;12.60;100.00;101832.34;5099866;27;99335;-28
2023/05/12 06:46:58;;;;;;;10.23;4.72;;;;;;;12.65;100.00;101835.69;5100225;27;99221;-30
2023/05/12 06:49:23;;;;;;;7.15;3.85;;;;;;;12.67;100.00;101839.22;5100525;27;96571;-28
2023/05/12 06:51:48;;;;;;;6.78;3.75;;;;;;;12.74;100.00;101848.78;5064898;27;97321;-28
2023/05/12 06:54:14;;;;;;;7.20;3.78;;;;;;;12.73;100.00;101845.19;5099472;27;97376;-29
2023/05/12 06:56:39;;;;;;;7.18;3.90;;;;;;;12.73;100.00;101853.34;5099779;27;97462;-28
2023/05/12 06:59:05;;;;;;;9.10;4.00;;;;;;;12.77;100.00;101853.19;5100331;27;96710;-28
2023/05/12 07:01:31;;;;;;;12.07;4.63;;;;;;;12.74;100.00;101851.50;5100095;27;96837;-29
2023/05/12 07:03:57;;;;;;;8.82;4.18;;;;;;;12.77;100.00;101853.19;5080825;27;101294;-29
2023/05/12 07:06:24;;;;;;;10.15;3.78;;;;;;;12.80;100.00;101853.00;5081017;27;100847;-28
2023/05/12 07:08:49;;;;;;;8.85;4.18;;;;;;;12.83;100.00;101850.13;5081535;27;96590;-30
2023/05/12 07:11:18;;;;;;;9.25;5.00;;;;;;;12.88;100.00;101853.47;5100185;27;96799;-27
2023/05/12 07:13:46;;;;;;;7.10;3.97;;;;;;;12.90;100.00;101863.31;5099381;27;98083;-29
2023/05/12 07:16:11;;;;;;;8.40;4.13;;;;;;;12.91;100.00;101866.91;5080767;27;100898;-28
2023/05/12 07:18:37;;;;;;;8.68;4.28;;;;;;;12.90;100.00;101860.59;5099552;27;96533;-28
2023/05/12 07:21:02;;;;;;;9.65;4.82;;;;;;;12.96;100.00;101862.06;5099843;27;96849;-29
2023/05/12 07:23:28;;;;;;;7.38;4.00;;;;;;;13.01;100.00;101856.38;5099175;27;99413;-32
2023/05/12 07:25:53;;;;;;;5.63;3.30;;;;;;;13.06;100.00;101859.72;5099214;27;99628;-28
2023/05/12 07:28:19;;;;;;;9.85;4.05;;;;;;;13.13;100.00;101866.56;5099899;27;96541;-28
2023/05/12 07:30:45;;;;;;;12.32;3.90;;;;;;;13.20;100.00;101862.53;5099996;27;96841;-29
2023/05/12 07:33:10;;;;;;;8.82;4.57;;;;;;;13.32;100.00;101863.72;5099176;27;98061;-28
2023/05/12 07:35:35;;;;;;;10.50;4.97;;;;;;;13.44;100.00;101865.75;5099365;27;99298;-29
2023/05/12 07:38:02;;;;;;;11.45;4.82;;;;;;;13.51;100.00;101860.84;5099816;27;96458;-28
2023/05/12 07:40:27;;;;;;;10.57;4.82;;;;;;;13.58;100.00;101863.09;5099593;27;97242;-29
2023/05/12 07:42:53;;;;;;;11.32;4.70;;;;;;;13.60;99.67;101869.34;5098740;27;97481;-28
2023/05/12 07:45:21;;;;;;;9.75;5.20;;;;;;;13.57;99.42;101866.81;5099270;27;97779;-29
2023/05/12 07:47:49;;;;;;;13.30;5.78;;;;;;;13.53;99.50;101865.22;5099518;27;96664;-28
2023/05/12 07:50:14;;;;;;;8.55;4.50;;;;;;;13.60;99.89;101869.34;5080905;27;96868;-29
2023/05/12 07:52:50;;;;;;;8.57;4.38;;;;;;;13.65;100.00;101876.38;5098572;27;99727;-29
2023/05/12 07:55:17;;;;;;;10.63;5.07;;;;;;;13.65;100.00;101871.81;5080173;27;101021;-28
2023/05/12 07:57:42;;;;;;;9.25;4.55;;;;;;;13.71;100.00;101879.63;5080640;27;96609;-29
2023/05/12 08:00:09;;;;;;;8.75;4.85;;;;;;;13.74;100.00;101867.69;5099757;27;96905;-28
2023/05/12 08:02:36;;;;;;;11.57;4.40;;;;;;;13.79;99.74;101876.44;5079768;27;100862;-29
2023/05/12 08:05:01;;;;;;;6.45;3.53;;;;;;;13.85;99.85;101878.81;5079833;27;101077;-29
2023/05/12 08:07:27;;;;;;;8.57;4.28;;;;;;;13.92;99.42;101880.22;5098483;27;96658;-28
2023/05/12 08:09:54;;;;;;;8.27;4.40;;;;;;;13.98;99.94;101889.84;5099464;27;96795;-28
2023/05/12 08:12:19;;;;;;;9.57;5.03;;;;;;;14.06;98.72;101883.94;5098744;27;97974;-28
2023/05/12 08:14:45;;;;;;;9.65;5.05;;;;;;;14.11;99.09;101880.00;5098448;27;98750;-29
2023/05/12 08:17:10;;;;;;;10.95;4.72;;;;;;;14.14;98.13;101884.38;5099317;27;96707;-29
2023/05/12 08:19:35;;;;;;;8.65;5.07;;;;;;;14.20;98.03;101890.31;5099516;27;96921;-29
2023/05/12 08:22:01;;;;;;;8.07;4.30;;;;;;;14.19;97.81;101885.84;5098665;27;97546;-28
2023/05/12 08:24:27;;;;;;;7.65;4.00;;;;;;;14.22;97.73;101888.38;5096105;27;99830;-30
2023/05/12 08:26:55;;;;;;;8.55;4.63;;;;;;;14.24;97.64;101893.75;5099117;27;97010;-30
2023/05/12 08:29:21;;;;;;;9.18;4.32;;;;;;;14.31;98.01;101900.59;5098786;27;96924;-31
2023/05/12 08:31:46;;;;;;;13.38;5.30;;;;;;;14.38;97.67;101893.78;5078574;27;100902;-30
2023/05/12 08:34:12;;;;;;;8.65;4.72;;;;;;;14.48;97.21;101887.78;5098384;27;97420;-30
2023/05/12 08:36:38;;;;;;;11.82;4.97;;;;;;;14.59;96.42;101886.19;5098665;27;97229;-29
2023/05/12 08:39:04;;;;;;;10.45;4.97;;;;;;;14.67;95.85;101882.97;5080060;27;96852;-30
2023/05/12 08:41:44;;;;;;;8.23;4.45;;;;;;;14.81;95.52;101890.31;5098216;27;99874;-30
2023/05/12 08:44:11;;;;;;;10.02;5.50;;;;;;;14.88;95.24;101883.50;5079599;27;100878;-30
2023/05/12 08:46:37;;;;;;;9.93;5.15;;;;;;;15.03;94.93;101887.97;5080185;27;96631;-29
2023/05/12 08:49:03;;;;;;;9.80;5.22;;;;;;;15.16;94.09;101889.91;5098953;27;96849;-29
2023/05/12 08:51:31;;;;;;;9.48;3.97;;;;;;;15.28;93.29;101881.81;5079433;27;100096;-31
2023/05/12 08:53:57;;;;;;;10.38;5.35;;;;;;;15.41;92.37;101884.59;5079324;27;101051;-29
2023/05/12 08:56:23;;;;;;;8.13;4.70;;;;;;;15.54;91.62;101890.16;5097898;27;96469;-29
2023/05/12 08:58:49;;;;;;;9.13;5.70;;;;;;;15.65;91.61;101887.56;5079929;27;96818;-30
2023/05/12 09:01:15;;;;;;;8.45;4.38;;;;;;;15.77;90.52;101890.50;5098234;27;97914;-29
2023/05/12 09:03:41;;;;;;;10.07;5.32;;;;;;;15.87;90.44;101891.63;5078906;27;101079;-29
2023/05/12 09:06:07;;;;;;;8.90;5.03;;;;;;;15.99;90.42;101889.94;5098641;27;96650;-29
2023/05/12 09:08:34;;;;;;;7.28;4.50;;;;;;;16.03;89.24;101886.91;5079702;27;96648;-29
2023/05/12 09:11:00;;;;;;;13.18;5.60;;;;;;;16.06;89.01;101892.13;5079229;27;101338;-30
2023/05/12 09:13:39;;;;;;;7.78;4.03;;;;;;;16.11;88.73;101887.25;5079487;27;100764;-29
2023/05/12 09:16:08;;;;;;;7.40;4.18;;;;;;;16.12;86.59;101891.72;5083239;27;97160;-30
2023/05/12 09:18:49;;;;;;;10.10;5.18;;;;;;;16.32;88.02;101892.22;5083364;27;96805;-29
2023/05/12 09:21:14;;;;;;;8.02;3.67;;;;;;;16.43;87.52;101886.88;5082403;27;100843;-31
2023/05/12 09:23:39;;;;;;;11.05;4.53;;;;;;;16.69;87.71;101887.78;5101407;27;97821;-30
2023/05/12 09:26:05;;;;;;;9.02;4.55;;;;;;;16.93;86.99;101887.94;5101963;27;96605;-30
2023/05/12 09:28:37;;;;;;;8.95;4.50;;;;;;;17.05;85.36;101891.66;5101986;27;96792;-29
2023/05/12 09:31:21;;;;;;;6.95;4.07;;;;;;;17.17;84.80;101895.38;5082376;27;101083;-30
2023/05/12 09:33:47;;;;;;;10.38;5.35;;;;;;;17.26;85.05;101889.22;5101324;27;97787;-29
2023/05/12 09:36:20;;;;;;;8.27;4.28;;;;;;;17.39;83.58;101901.00;5083012;27;96527;-29
2023/05/12 09:38:58;;;;;;;8.05;4.35;;;;;;;17.46;84.57;101900.56;5083355;27;96854;-30
2023/05/12 09:41:24;;;;;;;8.43;4.25;;;;;;;17.43;83.52;101900.81;5082493;27;101471;-29
2023/05/12 09:43:52;;;;;;;7.43;4.53;;;;;;;17.47;83.45;101902.31;5101044;27;99189;-29
2023/05/12 09:46:17;;;;;;;7.47;4.45;;;;;;;17.45;83.98;101898.78;5082417;27;96500;-31
2023/05/12 09:48:46;;;;;;;8.52;4.78;;;;;;;17.49;84.53;101895.72;5101231;27;96655;-30
2023/05/12 09:51:15;;;;;;;9.52;4.50;;;;;;;17.51;83.94;101904.69;5082291;27;100965;-30
2023/05/12 09:53:43;;;;;;;7.07;4.05;;;;;;;17.67;83.14;101900.84;5081945;27;101019;-29
2023/05/12 09:56:09;;;;;;;7.53;4.35;;;;;;;17.83;80.62;101899.59;5082649;27;96721;-29
2023/05/12 09:58:36;;;;;;;7.13;3.58;;;;;;;18.10;81.66;101898.50;5082697;27;96849;-30
2023/05/12 10:01:02;;;;;;;6.20;3.45;;;;;;;18.28;80.87;101898.91;5082099;27;101060;-31
2023/05/12 10:03:29;;;;;;;6.78;3.80;;;;;;;18.45;78.99;101895.75;5082452;27;101318;-29
2023/05/12 10:06:01;;;;;;;5.07;3.20;;;;;;;18.67;77.00;101894.06;5082507;27;96650;-30
2023/05/12 10:08:32;;;;;;;5.15;3.15;;;;;;;18.83;75.75;101886.41;5082605;27;96707;-29
2023/05/12 10:11:00;;;;;;;7.55;3.38;;;;;;;18.98;74.62;101892.53;5081537;27;101227;-29
2023/05/12 10:13:26;;;;;;;5.40;3.50;;;;;;;19.19;75.99;101886.31;5081850;27;101201;-30
2023/05/12 10:15:55;;;;;;;5.32;3.28;;;;;;;19.30;75.13;101887.16;5100888;27;96480;-29
2023/05/12 10:18:20;;;;;;;5.07;2.65;;;;;;;19.57;72.87;101894.13;5100996;27;96499;-29
2023/05/12 10:20:47;;;;;;;5.28;3.20;;;;;;;19.50;74.75;101890.16;5100410;27;97916;-30
2023/05/12 10:23:16;;;;;;;6.35;3.53;;;;;;;19.36;74.77;101888.53;5081854;27;100554;-29
2023/05/12 10:25:42;;;;;;;3.80;2.63;;;;;;;19.24;72.51;101893.16;5100655;27;96553;-29
2023/05/12 10:28:08;;;;;;;3.97;2.42;;;;;;;19.50;72.57;101895.66;5082482;27;96899;-30
2023/05/12 10:30:37;;;;;;;5.00;2.95;;;;;;;19.37;71.69;101883.91;5081600;27;100932;-29
2023/05/12 10:33:02;;;;;;;4.45;2.80;;;;;;;19.30;71.15;101889.03;5080589;27;101002;-30
2023/05/12 10:35:35;;;;;;;3.67;2.08;;;;;;;19.42;70.15;101904.50;5100224;27;96699;-30
2023/05/12 10:38:05;;;;;;;4.97;2.33;;;;;;;19.70;70.01;101905.00;5081965;27;96818;-30
2023/05/12 10:40:30;;;;;;;3.47;1.90;;;;;;;19.52;67.63;101905.50;5081512;27;100872;-29
2023/05/12 10:42:59;;;;;;;2.17;1.50;;;;;;;19.42;68.13;101901.75;5100030;27;98199;-29
2023/05/12 10:45:25;;;;;;;3.00;1.80;;;;;;;19.43;67.88;101911.75;5100472;27;96784;-30
2023/05/12 10:47:51;;;;;;;2.45;1.55;;;;;;;19.39;67.56;101907.50;5100506;27;96714;-30
2023/05/12 10:50:27;;;;;;;3.35;1.65;;;;;;;19.38;65.41;101904.88;5081360;27;101221;-30
2023/05/12 10:52:56;;;;;;;2.83;1.60;;;;;;;19.45;65.96;101898.78;5081746;27;100804;-29
2023/05/12 10:55:44;;;;;;;3.55;2.03;;;;;;;19.66;65.41;101900.72;5081712;27;96683;-29
2023/05/12 10:58:11;;;;;;;2.60;1.70;;;;;;;19.75;65.52;101899.13;5100303;27;96563;-30
2023/05/12 11:00:50;;;;;;;2.25;1.75;;;;;;;19.78;64.32;101896.09;5080656;27;101383;-31
2023/05/12 11:03:21;;;;;;;2.83;1.80;;;;;;;19.92;61.67;101899.44;5080874;27;101215;-30
2023/05/12 11:05:57;;;;;;;;;;;;;;;20.03;62.77;101900.44;5082088;27;96571;-29
2023/05/12 11:08:23;;;;;;;2.38;1.83;;;;;;;20.11;63.69;101892.38;5100624;27;97386;-29
2023/05/12 11:10:50;;;;;;;3.50;2.15;;;;;;;20.36;63.00;101897.53;5099439;27;97896;-29
2023/05/12 11:13:16;;;;;;;3.75;2.08;;;;;;;20.54;61.28;101891.41;5099375;27;98712;-29
2023/05/12 11:15:43;;;;;;;2.72;1.75;;;;;;;20.68;61.74;101899.38;5100162;27;96722;-31
2023/05/12 11:18:08;;;;;;;3.50;1.92;;;;;;;20.73;62.04;101902.59;5081796;27;96898;-29